Impacts METAR Board
IDs:

KMSP - Minneapolis-St Paul, MN, US

Updated at: 1300 UTC 21 Nov 2018
Potential Impact None Slight Moderate High
Time 21/01Z 21/02Z 21/03Z 21/04Z 21/05Z 21/06Z 21/07Z 21/08Z 21/09Z 21/10Z 21/11Z 21/12Z 21/13Z
Temp31 32 33 33 33 32 31 31 30 28 28 26 25
Dewpt25 26 27 27 27 26 24 24 23 20 19 18 18
Altim30.03 30.05 30.06 30.08 30.09 30.12 30.13 30.15 30.19 30.20 30.21 30.23 30.27
VIS10 10 10 10 9 10 10 10 10 10 10 10 10
CIG23 19 19 19 20 19 20 21 21 20 20 22 70
CoverOVCOVCOVCOVCOVCOVCOVCOVCOVCOVCOVCOVCOVC
FltCatMVFRMVFRMVFRMVFRMVFRMVFRMVFRMVFRMVFRMVFRMVFRMVFRVFR
WX--------------------------
WDir2302603103303403503602036040504040
WSpd4 4 5 5 7 6 10 6 7 9 9 8 10
WGst-- -- -- -- -- -- -- -- -- -- 21 17 19
Raw hourly METARs
KMSP 210053Z 23004KT 10SM OVC023 M01/M04 A3003 RMK AO2 SLP182 T10061039
KMSP 210153Z 26004KT 10SM OVC019 00/M03 A3005 RMK AO2 SLP189 T00001033
KMSP 210253Z 31005KT 10SM OVC019 01/M03 A3006 RMK AO2 SLP193 T00061028 53010
KMSP 210353Z 33005KT 10SM OVC019 01/M03 A3008 RMK AO2 SLP199 T00061028
KMSP 210453Z 34007KT 9SM OVC020 01/M03 A3009 RMK AO2 SLP202 T00061028
KMSP 210553Z 35006KT 10SM OVC019 00/M03 A3012 RMK AO2 SLP212 T00001033 10006 21011 400061111 53019
KMSP 210653Z 36010KT 10SM OVC020 M01/M04 A3013 RMK AO2 SLP215 T10061044
KMSP 210753Z 02006KT 10SM OVC021 M01/M04 A3015 RMK AO2 SLP222 T10061044
KMSP 210853Z 36007KT 10SM OVC021 M01/M05 A3019 RMK AO2 SLP235 T10111050 53024
KMSP 210953Z 04009KT 10SM OVC020 M02/M07 A3020 RMK AO2 SLP237 T10221067
KMSP 211053Z 05009G21KT 10SM OVC020 M02/M07 A3021 RMK AO2 SLP243 T10221072
KMSP 211153Z 04008G17KT 10SM OVC022 M03/M08 A3023 RMK AO2 SLP250 T10331078 10000 21033 53014
KMSP 211253Z 04010G19KT 10SM FEW021 FEW055 OVC070 M04/M08 A3027 RMK AO2 SLP262 T10391078



Page loaded:  13:45 UTC  |   05:45 AM Pacific  |   06:45 AM Mountain  |   07:45 AM Central  |   08:45 AM Eastern

 

ADVISORIES

FORECASTS

FORECASTS

OBSERVATIONS

USER TOOLS

ABOUT US